createdAt,value
2018-04-25T00:01:22.732Z,99.90
2018-04-25T00:03:51.055Z,99.90
2018-04-25T00:06:19.351Z,99.90
2018-04-25T00:08:47.635Z,99.90
2018-04-25T00:11:15.951Z,99.90
2018-04-25T00:13:44.237Z,99.90
2018-04-25T00:16:12.519Z,99.90
2018-04-25T00:18:40.832Z,99.90
2018-04-25T00:21:09.130Z,99.90
2018-04-25T00:23:37.443Z,99.90
2018-04-25T00:26:06.528Z,99.90
2018-04-25T00:28:34.879Z,99.90
2018-04-25T00:31:03.169Z,99.90
2018-04-25T00:33:32.220Z,99.90
2018-04-25T00:36:01.323Z,99.90
2018-04-25T00:38:29.615Z,99.90
2018-04-25T00:40:57.907Z,99.90
2018-04-25T00:43:26.295Z,99.90
2018-04-25T00:45:54.583Z,99.90
2018-04-25T00:48:22.872Z,99.90
2018-04-25T00:50:51.208Z,99.90
2018-04-25T00:53:19.512Z,99.90
2018-04-25T00:55:47.803Z,99.90
2018-04-25T00:58:16.159Z,99.90
2018-04-25T01:00:44.456Z,99.90
2018-04-25T01:03:13.571Z,99.90
2018-04-25T01:05:42.080Z,99.90
2018-04-25T01:08:10.367Z,99.90
2018-04-25T01:10:38.663Z,99.90
2018-04-25T01:13:06.971Z,99.90
2018-04-25T01:15:35.262Z,99.90
2018-04-25T01:18:03.587Z,99.90
2018-04-25T01:20:31.868Z,99.90
2018-04-25T01:23:00.156Z,99.90
2018-04-25T01:25:33.075Z,99.90
2018-04-25T01:41:32.035Z,99.90
2018-04-25T01:44:00.324Z,99.90
2018-04-25T01:46:31.591Z,99.90
2018-04-25T02:02:43.736Z,99.90
2018-04-25T02:05:12.037Z,99.90
2018-04-25T02:07:40.412Z,99.90
2018-04-25T02:10:08.746Z,99.90
2018-04-25T02:12:37.682Z,99.90
2018-04-25T02:15:06.448Z,99.90
2018-04-25T02:17:35.458Z,99.90
2018-04-25T02:20:04.382Z,99.90
2018-04-25T02:22:33.383Z,99.90
2018-04-25T02:25:01.676Z,99.90
2018-04-25T02:27:30.011Z,99.90
2018-04-25T02:29:58.312Z,99.90
2018-04-25T02:32:27.288Z,99.90
2018-04-25T02:34:55.731Z,99.90
2018-04-25T02:37:24.343Z,99.90
2018-04-25T02:39:52.671Z,99.90
2018-04-25T02:42:21.044Z,99.90
2018-04-25T02:44:49.555Z,99.90
2018-04-25T02:47:17.868Z,99.90
2018-04-25T02:49:46.250Z,99.90
2018-04-25T02:52:14.554Z,99.90
2018-04-25T02:54:43.599Z,99.90
2018-04-25T02:57:12.277Z,99.90
2018-04-25T02:59:40.580Z,99.90
2018-04-25T03:02:08.879Z,99.90
2018-04-25T03:04:36.979Z,99.90
2018-04-25T03:07:05.276Z,99.90
2018-04-25T03:09:33.584Z,99.90
2018-04-25T03:12:01.896Z,99.90
2018-04-25T03:14:30.651Z,99.90
2018-04-25T03:16:58.749Z,99.90
2018-04-25T03:19:27.807Z,99.90
2018-04-25T03:21:56.095Z,99.90
2018-04-25T03:24:24.436Z,99.90
2018-04-25T03:26:52.720Z,99.90
2018-04-25T03:29:21.008Z,99.90
2018-04-25T03:31:49.336Z,99.90
2018-04-25T03:34:18.192Z,99.90
2018-04-25T03:36:46.471Z,99.90
2018-04-25T03:39:14.783Z,99.90
2018-04-25T03:41:43.088Z,99.90
2018-04-25T03:44:11.589Z,99.90
2018-04-25T03:46:39.866Z,99.90
2018-04-25T03:49:08.155Z,99.90
2018-04-25T03:51:37.763Z,99.90
2018-04-25T03:54:06.064Z,99.90
2018-04-25T03:56:34.684Z,99.90
2018-04-25T03:59:03.601Z,99.90
2018-04-25T04:01:31.896Z,99.90
2018-04-25T04:04:00.233Z,99.90
2018-04-25T04:06:29.806Z,99.90
2018-04-25T04:08:58.091Z,99.90
2018-04-25T04:11:27.209Z,99.90
2018-04-25T04:13:55.764Z,99.90
2018-04-25T04:16:24.323Z,99.90
2018-04-25T04:18:53.170Z,99.90
2018-04-25T04:21:21.477Z,99.90
2018-04-25T04:23:49.796Z,99.90
2018-04-25T04:26:18.096Z,99.90
2018-04-25T04:28:46.376Z,99.90
2018-04-25T04:31:15.427Z,99.90
2018-04-25T04:33:44.360Z,99.90
2018-04-25T04:36:12.660Z,99.90
2018-04-25T04:38:40.959Z,99.90
2018-04-25T04:41:09.811Z,99.90
2018-04-25T04:43:38.116Z,99.90
2018-04-25T04:46:06.427Z,99.90
2018-04-25T04:48:34.780Z,99.90
2018-04-25T04:51:03.162Z,99.90
2018-04-25T04:53:31.253Z,99.90
2018-04-25T04:55:59.600Z,99.90
2018-04-25T04:58:27.880Z,99.90
2018-04-25T05:00:56.174Z,99.90
2018-04-25T05:03:24.531Z,99.90
2018-04-25T05:05:52.888Z,99.90
2018-04-25T05:08:21.198Z,99.90
2018-04-25T05:10:49.499Z,99.90
2018-04-25T05:13:17.820Z,99.90
2018-04-25T05:15:46.028Z,99.90
2018-04-25T05:18:14.324Z,99.90
2018-04-25T05:20:42.679Z,99.90
2018-04-25T05:23:10.983Z,99.90
2018-04-25T05:25:39.751Z,99.90
2018-04-25T05:28:08.225Z,99.90
2018-04-25T05:30:36.554Z,99.90
2018-04-25T05:33:05.603Z,99.90
2018-04-25T05:35:33.932Z,99.90
2018-04-25T05:38:02.991Z,99.90
2018-04-25T05:40:31.361Z,99.90
2018-04-25T05:42:59.839Z,99.90
2018-04-25T05:45:28.314Z,99.90
2018-04-25T05:47:56.628Z,99.90
2018-04-25T05:50:24.975Z,99.90
2018-04-25T05:52:53.372Z,99.90
2018-04-25T05:55:21.663Z,99.90
2018-04-25T05:57:50.003Z,99.90
2018-04-25T06:00:18.304Z,99.90
2018-04-25T06:02:47.408Z,99.90
2018-04-25T06:05:15.695Z,99.90
2018-04-25T06:07:45.031Z,99.90
2018-04-25T06:10:14.289Z,99.90
2018-04-25T06:12:42.600Z,99.90
2018-04-25T06:15:10.900Z,99.90
2018-04-25T06:17:39.358Z,99.90
2018-04-25T06:20:07.656Z,99.90
2018-04-25T06:22:35.975Z,99.90
2018-04-25T06:25:04.344Z,99.90
2018-04-25T06:27:32.647Z,99.90
2018-04-25T06:30:01.995Z,99.90
2018-04-25T06:32:30.332Z,99.90
2018-04-25T06:34:58.626Z,99.90
2018-04-25T06:37:26.959Z,99.90
2018-04-25T06:39:55.983Z,99.90
2018-04-25T06:42:25.250Z,99.90
2018-04-25T06:44:53.702Z,99.90
2018-04-25T06:47:22.549Z,99.90
2018-04-25T06:49:50.875Z,99.90
2018-04-25T06:52:19.215Z,99.90
2018-04-25T06:54:47.875Z,99.90
2018-04-25T06:57:16.174Z,99.90
2018-04-25T06:59:44.819Z,99.80
2018-04-25T07:02:13.327Z,99.90
2018-04-25T07:04:42.874Z,99.00
2018-04-25T07:07:11.411Z,98.40
2018-04-25T07:09:39.719Z,98.50
2018-04-25T07:12:08.079Z,98.00
2018-04-25T07:14:36.371Z,98.00
2018-04-25T07:17:04.919Z,98.00
2018-04-25T07:19:34.188Z,98.20
2018-04-25T07:22:02.827Z,97.70
2018-04-25T07:24:31.115Z,96.40
2018-04-25T07:27:00.782Z,95.40
2018-04-25T07:29:29.372Z,94.40
2018-04-25T07:31:58.109Z,94.10
2018-04-25T07:34:26.155Z,92.30
2018-04-25T07:36:54.444Z,92.00
2018-04-25T07:39:22.808Z,94.20
2018-04-25T07:41:51.199Z,94.30
2018-04-25T07:44:19.452Z,94.90
2018-04-25T07:46:48.343Z,94.70
2018-04-25T07:49:16.647Z,95.30
2018-04-25T07:51:44.964Z,95.70
2018-04-25T07:54:13.255Z,95.70
2018-04-25T07:56:41.974Z,94.80
2018-04-25T07:59:10.314Z,94.30
2018-04-25T08:01:38.595Z,93.20
2018-04-25T08:04:07.747Z,94.30
2018-04-25T08:06:37.304Z,95.30
2018-04-25T08:09:05.591Z,95.30
2018-04-25T08:11:33.896Z,93.90
2018-04-25T08:14:20.988Z,93.80
2018-04-25T08:17:06.771Z,94.10
2018-04-25T08:19:52.707Z,94.30
2018-04-25T08:22:21.000Z,93.70
2018-04-25T08:24:49.296Z,93.50
2018-04-25T08:27:17.697Z,93.10
2018-04-25T08:29:46.679Z,92.40
2018-04-25T08:32:15.005Z,91.50
2018-04-25T08:34:43.271Z,90.90
2018-04-25T08:37:11.439Z,92.30
2018-04-25T08:39:40.598Z,92.30
2018-04-25T08:42:08.939Z,92.70
2018-04-25T08:44:37.840Z,91.50
2018-04-25T08:47:06.251Z,92.40
2018-04-25T08:49:35.351Z,92.30
2018-04-25T08:52:04.277Z,94.20
2018-04-25T08:54:32.608Z,94.10
2018-04-25T08:57:01.279Z,93.40
2018-04-25T08:59:29.568Z,92.80
2018-04-25T09:01:58.675Z,93.70
2018-04-25T09:04:27.446Z,94.50
2018-04-25T09:06:55.786Z,93.90
2018-04-25T09:09:24.623Z,93.10
2018-04-25T09:11:53.715Z,92.10
2018-04-25T09:14:22.211Z,91.00
2018-04-25T09:16:50.496Z,90.80
2018-04-25T09:19:18.834Z,90.30
2018-04-25T09:21:47.115Z,87.00
2018-04-25T09:24:15.399Z,85.60
2018-04-25T09:26:43.705Z,87.80
2018-04-25T09:29:11.997Z,89.00
2018-04-25T09:31:40.303Z,86.80
2018-04-25T09:34:08.586Z,85.40
2018-04-25T09:36:37.315Z,87.30
2018-04-25T09:39:05.791Z,84.00
2018-04-25T09:41:34.123Z,83.90
2018-04-25T09:44:02.453Z,82.00
2018-04-25T09:46:30.558Z,81.70
2018-04-25T09:48:59.614Z,82.40
2018-04-25T09:51:27.898Z,82.40
2018-04-25T09:53:56.208Z,76.10
2018-04-25T09:56:25.255Z,77.30
2018-04-25T09:58:53.682Z,77.30
2018-04-25T10:01:27.231Z,76.80
2018-04-25T10:03:55.631Z,76.80
2018-04-25T10:08:59.047Z,76.00
2018-04-25T10:11:27.336Z,74.80
2018-04-25T10:13:55.623Z,72.20
2018-04-25T10:16:23.971Z,68.70
2018-04-25T10:18:52.259Z,70.30
2018-04-25T10:21:20.547Z,68.00
2018-04-25T10:23:49.245Z,68.10
2018-04-25T10:26:18.024Z,67.00
2018-04-25T10:28:46.909Z,67.70
2018-04-25T10:31:15.429Z,64.70
2018-04-25T10:33:44.411Z,65.40
2018-04-25T10:36:12.703Z,70.00
2018-04-25T10:38:41.458Z,69.90
2018-04-25T10:41:09.777Z,70.50
2018-04-25T10:43:38.257Z,70.80
2018-04-25T10:46:06.543Z,70.50
2018-04-25T10:48:34.827Z,72.30
2018-04-25T10:51:02.947Z,72.70
2018-04-25T10:53:31.811Z,72.40
2018-04-25T10:56:00.306Z,72.20
2018-04-25T10:58:28.551Z,70.30
2018-04-25T11:00:56.876Z,69.30
2018-04-25T11:03:25.159Z,69.00
2018-04-25T11:05:54.209Z,67.80
2018-04-25T11:08:22.759Z,67.80
2018-04-25T11:10:51.050Z,65.70
2018-04-25T11:13:19.326Z,62.80
2018-04-25T11:15:47.659Z,63.60
2018-04-25T11:18:15.943Z,63.10
2018-04-25T11:20:44.240Z,64.30
2018-04-25T11:23:12.563Z,65.50
2018-04-25T11:25:40.839Z,66.00
2018-04-25T11:28:09.124Z,68.50
2018-04-25T11:30:37.603Z,68.90
2018-04-25T11:33:05.940Z,70.60
2018-04-25T11:35:34.421Z,71.70
2018-04-25T11:38:03.027Z,72.70
2018-04-25T11:40:31.319Z,73.20
2018-04-25T11:42:59.599Z,72.80
2018-04-25T11:45:27.907Z,73.40
2018-04-25T11:47:56.963Z,74.30
2018-04-25T11:50:25.299Z,74.20
2018-04-25T11:52:53.599Z,75.30
2018-04-25T11:55:22.409Z,76.30
2018-04-25T11:57:51.222Z,75.50
2018-04-25T12:00:19.687Z,75.50
2018-04-25T12:02:48.027Z,74.70
2018-04-25T12:05:16.320Z,75.90
2018-04-25T12:07:44.691Z,75.10
2018-04-25T12:10:13.055Z,75.50
2018-04-25T12:12:41.851Z,75.50
2018-04-25T12:15:10.135Z,76.00
2018-04-25T12:17:38.431Z,77.70
2018-04-25T12:20:06.755Z,78.40
2018-04-25T12:22:35.035Z,77.50
2018-04-25T12:25:03.323Z,77.20
2018-04-25T12:27:31.650Z,75.50
2018-04-25T12:29:59.939Z,75.10
2018-04-25T12:32:28.920Z,75.60
2018-04-25T12:34:57.350Z,75.50
2018-04-25T12:37:26.162Z,73.70
2018-04-25T12:39:54.449Z,73.40
2018-04-25T12:42:22.754Z,74.10
2018-04-25T12:44:51.116Z,74.20
2018-04-25T12:47:19.494Z,77.40
2018-04-25T12:49:47.691Z,76.00
2018-04-25T12:52:15.807Z,77.30
2018-04-25T12:54:44.111Z,79.40
2018-04-25T12:57:12.408Z,80.50
2018-04-25T12:59:40.739Z,80.80
2018-04-25T13:02:08.987Z,81.10
2018-04-25T13:04:37.271Z,79.30
2018-04-25T13:07:05.885Z,80.60
2018-04-25T13:09:34.467Z,79.20
2018-04-25T13:12:02.755Z,80.00
2018-04-25T13:14:31.080Z,79.90
2018-04-25T13:16:59.363Z,78.10
2018-04-25T13:19:27.668Z,78.30
2018-04-25T13:21:56.425Z,72.40
2018-04-25T13:24:24.712Z,74.80
2018-04-25T13:26:53.771Z,77.40
2018-04-25T13:29:22.115Z,77.40
2018-04-25T13:31:50.399Z,77.40
2018-04-25T13:34:18.683Z,77.20
2018-04-25T13:36:48.011Z,77.20
2018-04-25T13:39:16.295Z,77.20
2018-04-25T13:41:45.347Z,79.60
2018-04-25T13:44:13.683Z,81.00
2018-04-25T13:46:42.048Z,80.30
2018-04-25T13:49:10.423Z,79.20
2018-04-25T13:51:38.755Z,82.00
2018-04-25T13:54:07.036Z,83.40
2018-04-25T13:56:35.480Z,81.80
2018-04-25T13:59:03.805Z,81.50
2018-04-25T14:01:32.124Z,86.80
2018-04-25T14:04:01.547Z,86.50
2018-04-25T14:06:29.832Z,83.40
2018-04-25T14:08:58.164Z,85.40
2018-04-25T14:11:26.483Z,85.70
2018-04-25T14:13:55.544Z,88.30
2018-04-25T14:16:23.887Z,88.30
2018-04-25T14:18:52.171Z,85.90
2018-04-25T14:21:20.219Z,85.30
2018-04-25T14:23:48.659Z,85.40
2018-04-25T14:26:16.948Z,86.30
2018-04-25T14:28:45.239Z,85.50
2018-04-25T14:31:13.727Z,86.30
2018-04-25T14:33:42.771Z,86.70
2018-04-25T14:36:11.055Z,86.70
2018-04-25T14:38:39.163Z,85.70
2018-04-25T14:41:07.459Z,85.80
2018-04-25T14:43:35.923Z,84.40
2018-04-25T14:46:04.716Z,85.50
2018-04-25T14:48:33.012Z,84.70
2018-04-25T14:51:01.983Z,84.40
2018-04-25T14:53:30.279Z,85.00
2018-04-25T14:55:59.355Z,84.50
2018-04-25T14:58:27.645Z,83.50
2018-04-25T15:00:56.030Z,83.20
2018-04-25T15:03:24.360Z,82.80
2018-04-25T15:05:52.680Z,84.50
2018-04-25T15:08:21.266Z,85.10
2018-04-25T15:10:50.025Z,84.70
2018-04-25T15:13:18.806Z,85.30
2018-04-25T15:15:47.426Z,86.00
2018-04-25T15:18:15.767Z,83.70
2018-04-25T15:20:44.049Z,85.00
2018-04-25T15:23:12.340Z,83.10
2018-04-25T15:25:41.163Z,82.90
2018-04-25T15:28:10.126Z,83.70
2018-04-25T15:30:38.667Z,82.80
2018-04-25T15:33:07.769Z,80.60
2018-04-25T15:35:36.360Z,80.60
2018-04-25T15:38:05.503Z,80.50
2018-04-25T15:40:33.788Z,81.30
2018-04-25T15:43:02.549Z,82.40
2018-04-25T15:45:31.660Z,83.60
2018-04-25T15:48:00.740Z,84.20
2018-04-25T15:50:29.029Z,83.50
2018-04-25T15:52:57.319Z,84.50
2018-04-25T15:55:25.731Z,84.20
2018-04-25T15:57:57.275Z,85.10
2018-04-25T16:00:25.606Z,86.10
2018-04-25T16:02:54.663Z,87.60
2018-04-25T16:05:23.405Z,88.70
2018-04-25T16:07:51.996Z,90.00
2018-04-25T16:10:20.283Z,90.30
2018-04-25T16:12:48.571Z,90.00
2018-04-25T16:15:16.931Z,90.20
2018-04-25T16:17:45.867Z,90.80
2018-04-25T16:20:14.196Z,91.60
2018-04-25T16:22:42.625Z,92.40
2018-04-25T16:25:11.591Z,92.80
2018-04-25T16:27:39.870Z,93.80
2018-04-25T16:30:08.202Z,94.70
2018-04-25T16:32:36.251Z,95.10
2018-04-25T16:35:04.558Z,96.00
2018-04-25T16:37:33.979Z,96.40
2018-04-25T16:40:02.265Z,97.10
2018-04-25T16:42:30.548Z,97.40
2018-04-25T16:44:58.859Z,97.70
2018-04-25T16:47:27.147Z,97.70
2018-04-25T16:49:55.599Z,97.90
2018-04-25T16:52:23.887Z,97.90
2018-04-25T16:54:55.955Z,98.00
2018-04-25T16:57:25.004Z,98.70
2018-04-25T16:59:53.881Z,98.70
2018-04-25T17:02:22.168Z,98.60
2018-04-25T17:04:51.368Z,99.40
2018-04-25T17:07:20.116Z,99.70
2018-04-25T17:09:49.179Z,99.90
2018-04-25T17:12:17.479Z,99.90
2018-04-25T17:14:46.190Z,99.90
2018-04-25T17:17:14.489Z,99.90
2018-04-25T17:19:42.771Z,99.90
2018-04-25T17:22:11.568Z,99.90
2018-04-25T17:24:39.867Z,99.90
2018-04-25T17:27:08.159Z,99.90
2018-04-25T17:29:36.591Z,99.90
2018-04-25T17:32:05.023Z,99.90
2018-04-25T17:34:34.070Z,99.90
2018-04-25T17:37:02.395Z,99.90
2018-04-25T17:39:30.679Z,99.90
2018-04-25T17:41:59.382Z,99.90
2018-04-25T17:44:27.887Z,99.90
2018-04-25T17:46:56.385Z,99.90
2018-04-25T17:49:24.722Z,99.90
2018-04-25T17:51:53.004Z,99.90
2018-04-25T17:54:21.619Z,99.90
2018-04-25T17:56:50.139Z,99.90
2018-04-25T17:59:19.187Z,99.90
2018-04-25T18:01:47.278Z,99.90
2018-04-25T18:04:15.595Z,99.90
2018-04-25T18:06:46.000Z,99.90
2018-04-25T18:11:49.660Z,99.90
2018-04-25T18:14:17.937Z,99.90
2018-04-25T18:16:46.337Z,99.90
2018-04-25T18:19:15.349Z,99.90
2018-04-25T18:21:44.185Z,99.90
2018-04-25T18:24:12.757Z,99.90
2018-04-25T18:26:41.580Z,99.90
2018-04-25T18:29:09.940Z,99.90
2018-04-25T18:31:38.551Z,99.90
2018-04-25T18:34:08.452Z,99.90
2018-04-25T18:36:40.679Z,99.90
2018-04-25T18:39:09.538Z,99.90
2018-04-25T18:41:38.740Z,99.90
2018-04-25T18:44:07.047Z,99.90
2018-04-25T18:46:36.935Z,99.90
2018-04-25T18:49:05.227Z,99.90
2018-04-25T18:51:33.667Z,99.90
2018-04-25T18:54:02.000Z,99.90
2018-04-25T18:56:30.416Z,99.90
2018-04-25T18:58:58.700Z,99.90
2018-04-25T19:01:27.482Z,99.90
2018-04-25T19:03:55.772Z,99.90
2018-04-25T19:06:24.178Z,99.90
2018-04-25T19:08:52.517Z,99.90
2018-04-25T19:11:20.807Z,99.90
2018-04-25T19:13:49.795Z,99.90
2018-04-25T19:16:18.628Z,99.90
2018-04-25T19:18:47.030Z,99.90
2018-04-25T19:21:16.473Z,99.90
2018-04-25T19:23:45.019Z,99.90
2018-04-25T19:26:14.103Z,99.90
2018-04-25T19:28:42.557Z,99.90
2018-04-25T19:31:11.639Z,99.90
2018-04-25T19:33:40.712Z,99.90
2018-04-25T19:36:09.296Z,99.90
2018-04-25T19:38:38.861Z,99.90
2018-04-25T19:41:07.928Z,99.90
2018-04-25T19:43:37.015Z,99.90
2018-04-25T19:46:06.223Z,99.90
2018-04-25T19:48:34.339Z,99.90
2018-04-25T19:51:02.671Z,99.90
2018-04-25T19:53:31.539Z,99.90
2018-04-25T19:56:01.552Z,99.90
2018-04-25T19:58:29.840Z,99.90
2018-04-25T20:00:58.176Z,99.90
2018-04-25T20:03:26.476Z,99.90
2018-04-25T20:05:54.879Z,99.90
2018-04-25T20:08:23.426Z,99.90
2018-04-25T20:10:51.666Z,99.90
2018-04-25T20:13:20.523Z,99.90
2018-04-25T20:15:48.945Z,99.90
2018-04-25T20:18:17.371Z,99.90
2018-04-25T20:20:46.033Z,99.90
2018-04-25T20:23:14.471Z,99.90
2018-04-25T20:25:43.351Z,99.90
2018-04-25T20:28:11.708Z,99.90
2018-04-25T20:30:40.247Z,99.90
2018-04-25T20:33:08.973Z,99.90
2018-04-25T20:35:37.263Z,99.90
2018-04-25T20:38:05.603Z,99.90
2018-04-25T20:40:35.575Z,99.90
2018-04-25T20:43:04.323Z,99.90
2018-04-25T20:45:35.517Z,99.90
2018-04-25T20:48:04.137Z,99.90
2018-04-25T20:50:34.292Z,99.90
2018-04-25T20:53:02.980Z,99.90
2018-04-25T20:55:32.064Z,99.90
2018-04-25T20:58:00.918Z,99.90
2018-04-25T21:00:30.001Z,99.90
2018-04-25T21:02:58.291Z,99.90
2018-04-25T21:05:29.228Z,99.90
2018-04-25T21:07:57.551Z,99.90
2018-04-25T21:10:27.341Z,99.90
2018-04-25T21:12:56.272Z,99.90
2018-04-25T21:15:24.904Z,99.90
2018-04-25T21:17:53.239Z,99.90
2018-04-25T21:20:23.978Z,99.90
2018-04-25T21:22:54.180Z,99.90
2018-04-25T21:25:22.846Z,99.90
2018-04-25T21:27:50.892Z,99.90
2018-04-25T21:30:19.758Z,99.90
2018-04-25T21:32:48.079Z,99.90
2018-04-25T21:35:16.427Z,99.90
2018-04-25T21:37:44.738Z,99.90
2018-04-25T21:40:13.085Z,99.90
2018-04-25T21:42:41.368Z,99.90
2018-04-25T21:45:09.711Z,99.90
2018-04-25T21:47:38.049Z,99.90
2018-04-25T21:50:06.675Z,99.90
2018-04-25T21:52:37.085Z,99.90
2018-04-25T21:55:05.427Z,99.90
2018-04-25T21:57:33.706Z,99.90
2018-04-25T22:00:02.705Z,99.90
2018-04-25T22:02:31.482Z,99.90
2018-04-25T22:05:00.187Z,99.90
2018-04-25T22:07:28.481Z,99.90
2018-04-25T22:09:56.819Z,99.90
2018-04-25T22:12:25.112Z,99.90
2018-04-25T22:14:53.399Z,99.90
2018-04-25T22:17:24.325Z,99.90
2018-04-25T22:19:52.771Z,99.90
2018-04-25T22:22:21.052Z,99.90
2018-04-25T22:24:49.606Z,99.90
2018-04-25T22:27:17.955Z,99.90
2018-04-25T22:29:46.235Z,99.90
2018-04-25T22:32:15.243Z,99.90
2018-04-25T22:34:44.036Z,99.90
2018-04-25T22:37:12.315Z,99.90
2018-04-25T22:39:41.185Z,99.90
2018-04-25T22:42:09.468Z,99.90
2018-04-25T22:44:38.523Z,99.90
2018-04-25T22:47:08.225Z,99.90
2018-04-25T22:49:36.877Z,99.90
2018-04-25T22:52:05.167Z,99.90
2018-04-25T22:54:35.260Z,99.90
2018-04-25T22:57:03.675Z,99.90
2018-04-25T22:59:33.847Z,99.90
2018-04-25T23:02:02.493Z,99.90
2018-04-25T23:04:31.867Z,99.90
2018-04-25T23:07:00.158Z,99.90
2018-04-25T23:09:28.507Z,99.90
2018-04-25T23:11:57.290Z,99.90
2018-04-25T23:14:25.992Z,99.90
2018-04-25T23:16:54.283Z,99.90
2018-04-25T23:19:22.572Z,99.90
2018-04-25T23:21:51.008Z,99.90
2018-04-25T23:24:19.838Z,99.90
2018-04-25T23:26:48.492Z,99.90
2018-04-25T23:29:16.795Z,99.90
2018-04-25T23:31:45.091Z,99.90
2018-04-25T23:34:13.431Z,99.90
2018-04-25T23:36:42.643Z,99.90
2018-04-25T23:39:10.955Z,99.90
2018-04-25T23:41:39.282Z,99.90
2018-04-25T23:44:08.648Z,99.90
2018-04-25T23:46:36.967Z,99.90
2018-04-25T23:49:07.532Z,99.90
2018-04-25T23:51:35.821Z,99.90
2018-04-25T23:54:04.214Z,99.90
2018-04-25T23:56:32.630Z,99.90
2018-04-25T23:59:01.542Z,99.90
